Time;durP1;ratioP1;P1;durP2;ratioP2;P2;SDS_P1;SDS_P2;PMS_P1;PMS_P2;Temp;Humidity;BMP_temperature;BMP_pressure;BME280_temperature;BME280_humidity;BME280_pressure;Samples;Min_cycle;Max_cycle;Signal;HPM_P1;HPM_P2
2023/04/10 00:01:49;;;;;;;34.60;21.75;;;7.80;99.90;;;;;;5044732;28;20052;-77
2023/04/10 00:04:15;;;;;;;34.42;21.85;;;7.80;99.90;;;;;;5047407;28;20106;-77
2023/04/10 00:06:41;;;;;;;33.10;21.50;;;8.20;99.90;;;;;;5027907;28;20036;-78
2023/04/10 00:09:08;;;;;;;37.67;22.95;;;7.80;99.90;;;;;;5030534;28;20535;-78
2023/04/10 00:11:34;;;;;;;39.28;24.15;;;9.10;99.90;;;;;;5061109;28;20041;-78
2023/04/10 00:14:00;;;;;;;37.22;23.95;;;7.80;99.90;;;;;;5029336;28;20107;-78
2023/04/10 00:16:25;;;;;;;35.63;22.95;;;8.40;99.90;;;;;;5045508;28;20496;-77
2023/04/10 00:18:51;;;;;;;39.47;23.67;;;7.80;99.90;;;;;;5044221;28;20040;-78
2023/04/10 00:21:17;;;;;;;37.92;24.10;;;8.30;99.90;;;;;;5046616;28;20041;-78
2023/04/10 00:23:44;;;;;;;37.45;22.75;;;8.00;99.90;;;;;;5010601;28;20048;-77
2023/04/10 00:26:09;;;;;;;41.95;23.25;;;8.20;99.90;;;;;;5046445;28;20049;-78
2023/04/10 00:28:36;;;;;;;37.60;23.30;;;9.20;99.90;;;;;;5010945;28;20052;-78
2023/04/10 00:31:05;;;;;;;36.15;24.48;;;7.70;99.90;;;;;;5028808;28;20041;-78
2023/04/10 00:33:31;;;;;;;40.35;24.98;;;7.70;99.90;;;;;;5012308;28;20060;-77
2023/04/10 00:35:56;;;;;;;40.28;24.58;;;7.70;99.90;;;;;;5011291;28;20052;-78
2023/04/10 00:38:22;;;;;;;42.95;23.83;;;7.70;99.90;;;;;;5013324;28;20075;-78
2023/04/10 00:40:51;;;;;;;40.00;24.77;;;7.70;99.90;;;;;;5010383;28;20412;-78
2023/04/10 00:43:19;;;;;;;39.88;24.13;;;7.70;99.90;;;;;;5029874;28;20056;-78
2023/04/10 00:45:44;;;;;;;37.92;24.02;;;7.70;99.90;;;;;;5027727;28;20055;-77
2023/04/10 00:48:11;;;;;;;41.63;24.83;;;7.50;99.90;;;;;;5045093;28;20045;-78
2023/04/10 00:50:37;;;;;;;39.67;25.30;;;7.60;99.90;;;;;;5079050;28;20361;-77
2023/04/10 00:53:02;;;;;;;41.60;25.33;;;7.60;99.90;;;;;;5060333;28;20051;-77
2023/04/10 00:55:28;;;;;;;41.42;25.20;;;7.60;99.90;;;;;;5062476;28;20472;-78
2023/04/10 00:57:55;;;;;;;43.03;25.98;;;8.80;99.90;;;;;;5026115;28;20044;-77
2023/04/10 01:00:22;;;;;;;41.58;25.48;;;7.50;99.90;;;;;;5045856;28;20045;-77
2023/04/10 01:02:47;;;;;;;41.88;25.63;;;7.90;99.90;;;;;;5077207;28;20438;-77
2023/04/10 01:05:13;;;;;;;39.20;24.88;;;7.40;99.90;;;;;;5044657;28;20131;-77
2023/04/10 01:07:58;;;;;;;41.33;24.70;;;7.40;99.90;;;;;;5044658;28;20045;-76
2023/04/10 01:10:50;;;;;;;44.55;26.35;;;7.30;99.90;;;;;;5026390;28;20080;-77
2023/04/10 01:13:34;;;;;;;43.15;27.08;;;7.60;99.90;;;;;;5062419;28;20044;-77
2023/04/10 01:16:30;;;;;;;41.80;26.63;;;7.20;99.90;;;;;;5044456;28;20903;-77
2023/04/10 01:19:19;;;;;;;42.83;28.83;;;7.20;99.90;;;;;;5059619;28;20049;-76
2023/04/10 01:21:45;;;;;;;44.65;26.80;;;7.10;99.90;;;;;;5045630;28;20040;-77
2023/04/10 01:24:20;;;;;;;46.55;28.02;;;7.10;99.90;;;;;;5027102;28;20045;-76
2023/04/10 01:26:55;;;;;;;46.65;28.25;;;7.00;99.90;;;;;;5027621;28;20041;-77
2023/04/10 01:29:25;;;;;;;47.75;29.23;;;8.00;99.90;;;;;;5045381;28;20490;-77
2023/04/10 01:32:02;;;;;;;50.67;29.05;;;7.00;99.90;;;;;;5043248;28;20052;-76
2023/04/10 01:34:46;;;;;;;50.47;29.80;;;6.90;99.90;;;;;;5061990;28;20049;-77
2023/04/10 01:37:20;;;;;;;48.60;28.38;;;7.00;99.90;;;;;;5043230;28;20055;-76
2023/04/10 01:39:56;;;;;;;49.13;30.13;;;6.90;99.90;;;;;;5077370;28;20484;-76
2023/04/10 01:42:23;;;;;;;50.50;30.40;;;6.90;99.90;;;;;;5044690;28;20182;-77
2023/04/10 01:44:50;;;;;;;50.50;30.13;;;7.00;99.90;;;;;;5042249;28;20091;-76
2023/04/10 01:47:17;;;;;;;50.47;30.50;;;6.90;99.90;;;;;;5045578;28;20049;-77
2023/04/10 01:49:47;;;;;;;51.83;31.20;;;6.90;99.90;;;;;;5044133;28;20124;-77
2023/04/10 01:52:15;;;;;;;51.83;31.58;;;7.30;99.90;;;;;;5044470;28;20055;-76
2023/04/10 01:54:44;;;;;;;52.47;31.90;;;6.80;99.90;;;;;;5059737;28;20091;-77
2023/04/10 01:57:12;;;;;;;57.03;33.03;;;6.80;99.90;;;;;;5042188;28;20049;-76
2023/04/10 01:59:38;;;;;;;49.88;32.03;;;7.10;99.90;;;;;;5045284;28;20047;-76
2023/04/10 02:02:06;;;;;;;54.10;31.48;;;7.00;99.90;;;;;;5042261;28;20425;-77
2023/04/10 02:04:32;;;;;;;50.78;30.40;;;6.80;99.90;;;;;;5045271;28;20057;-77
2023/04/10 02:07:12;;;;;;;51.42;32.45;;;7.10;99.90;;;;;;5041783;28;20044;-77
2023/04/10 02:09:46;;;;;;;48.58;30.90;;;6.70;99.90;;;;;;5077116;28;20049;-77
2023/04/10 02:12:19;;;;;;;53.72;32.13;;;7.70;99.90;;;;;;5027748;28;20051;-77
2023/04/10 02:14:47;;;;;;;51.13;33.15;;;6.70;99.90;;;;;;5041479;28;20068;-76
2023/04/10 02:17:17;;;;;;;49.97;30.95;;;6.70;99.90;;;;;;5028151;28;20045;-77
2023/04/10 02:19:47;;;;;;;52.42;31.67;;;6.70;99.90;;;;;;5074807;28;20037;-77
2023/04/10 02:22:14;;;;;;;50.22;31.25;;;6.60;99.90;;;;;;5026896;28;20052;-77
2023/04/10 02:24:40;;;;;;;51.90;30.10;;;6.70;99.90;;;;;;5026277;28;20523;-77
2023/04/10 02:27:06;;;;;;;46.50;29.38;;;6.70;99.90;;;;;;5042263;28;20074;-77
2023/04/10 02:29:32;;;;;;;51.60;30.33;;;6.70;99.90;;;;;;5027699;28;20064;-77
2023/04/10 02:31:59;;;;;;;46.75;30.52;;;6.70;99.90;;;;;;5024462;28;20048;-77
2023/04/10 02:34:24;;;;;;;52.25;31.67;;;7.00;99.90;;;;;;5027746;28;20045;-77
2023/04/10 02:36:51;;;;;;;52.63;31.40;;;6.60;99.90;;;;;;5025439;28;20071;-77
2023/04/10 02:39:16;;;;;;;50.38;31.23;;;6.70;99.90;;;;;;5027201;28;20033;-77
2023/04/10 02:41:42;;;;;;;51.47;31.48;;;6.70;99.90;;;;;;5025915;28;20575;-77
2023/04/10 02:44:07;;;;;;;54.92;31.52;;;6.70;99.90;;;;;;5025590;28;20549;-76
2023/04/10 02:46:33;;;;;;;56.08;31.92;;;6.70;99.90;;;;;;5027075;28;20087;-77
2023/04/10 02:49:00;;;;;;;50.13;30.88;;;6.60;99.90;;;;;;5040873;28;20517;-78
2023/04/10 02:51:26;;;;;;;55.40;31.23;;;6.70;99.90;;;;;;5061227;28;20135;-78
2023/04/10 02:53:51;;;;;;;50.45;31.67;;;6.70;99.90;;;;;;5041110;28;20528;-78
2023/04/10 02:56:17;;;;;;;49.05;30.45;;;7.70;99.90;;;;;;5043269;28;20041;-78
2023/04/10 02:58:45;;;;;;;49.05;29.88;;;6.70;99.90;;;;;;5025476;28;20084;-78
2023/04/10 03:01:11;;;;;;;50.63;30.98;;;7.10;99.90;;;;;;5042114;28;20041;-78
2023/04/10 03:03:37;;;;;;;48.25;29.23;;;6.70;99.90;;;;;;5043500;28;20275;-78
2023/04/10 03:06:03;;;;;;;54.20;30.13;;;6.60;99.90;;;;;;5040875;28;20344;-78
2023/04/10 03:08:29;;;;;;;48.22;30.52;;;6.60;99.90;;;;;;5043229;28;20049;-78
2023/04/10 03:10:54;;;;;;;45.58;29.75;;;6.60;99.90;;;;;;5041705;28;20092;-78
2023/04/10 03:13:22;;;;;;;49.58;29.50;;;7.10;99.90;;;;;;5043337;28;20037;-78
2023/04/10 03:15:47;;;;;;;45.67;29.50;;;6.60;99.90;;;;;;5041702;28;20529;-78
2023/04/10 03:18:13;;;;;;;51.58;29.33;;;7.20;99.90;;;;;;5041918;28;20057;-78
2023/04/10 03:20:39;;;;;;;48.40;29.73;;;7.70;99.90;;;;;;5059606;28;20041;-78
2023/04/10 03:23:06;;;;;;;50.88;27.98;;;6.60;99.90;;;;;;5058261;28;20049;-78
2023/04/10 03:25:35;;;;;;;51.13;29.60;;;6.50;99.90;;;;;;5043629;28;20052;-78
2023/04/10 03:28:01;;;;;;;51.03;30.63;;;6.60;99.90;;;;;;5040889;28;20166;-78
2023/04/10 03:30:27;;;;;;;46.08;29.02;;;6.60;99.90;;;;;;5043332;28;20063;-78
2023/04/10 03:32:53;;;;;;;48.40;27.98;;;6.60;99.90;;;;;;5042263;28;20591;-78
2023/04/10 03:35:18;;;;;;;47.97;30.23;;;6.60;99.90;;;;;;5042397;28;20053;-78
2023/04/10 03:37:44;;;;;;;46.33;27.85;;;6.60;99.90;;;;;;5042643;28;20044;-78
2023/04/10 03:40:10;;;;;;;46.70;28.50;;;6.60;99.90;;;;;;5041096;28;20156;-78
2023/04/10 03:42:36;;;;;;;48.60;29.58;;;6.50;99.90;;;;;;5060146;28;20041;-78
2023/04/10 03:45:03;;;;;;;45.38;28.23;;;6.50;99.90;;;;;;5023787;28;20107;-78
2023/04/10 03:47:33;;;;;;;44.75;27.58;;;6.50;99.90;;;;;;5043410;28;20049;-78
2023/04/10 03:49:59;;;;;;;44.78;29.90;;;6.90;99.90;;;;;;5074822;28;20091;-76
2023/04/10 03:52:26;;;;;;;49.83;30.45;;;7.50;99.90;;;;;;5025737;28;20399;-76
2023/04/10 03:54:53;;;;;;;50.95;28.63;;;6.50;99.90;;;;;;5026166;28;20052;-77
2023/04/10 03:57:20;;;;;;;50.63;30.55;;;7.30;99.90;;;;;;5040880;28;20048;-78
2023/04/10 03:59:49;;;;;;;46.75;28.70;;;7.50;99.90;;;;;;5027179;28;20041;-78
2023/04/10 04:02:14;;;;;;;48.25;29.17;;;6.40;99.90;;;;;;5024558;28;20053;-78
2023/04/10 04:04:40;;;;;;;50.95;30.00;;;6.80;99.90;;;;;;5042774;28;20378;-78
2023/04/10 04:07:06;;;;;;;49.60;29.63;;;6.40;99.90;;;;;;5040830;28;20041;-78
2023/04/10 04:09:31;;;;;;;54.65;31.08;;;6.40;99.90;;;;;;5041694;28;20053;-78
2023/04/10 04:11:57;;;;;;;57.30;32.33;;;6.30;99.90;;;;;;5025780;28;20037;-78
2023/04/10 04:14:23;;;;;;;55.67;32.15;;;6.30;99.90;;;;;;5041131;28;20049;-77
2023/04/10 04:16:49;;;;;;;51.45;30.63;;;6.70;99.90;;;;;;5026423;28;20040;-78
2023/04/10 04:19:15;;;;;;;51.28;31.60;;;6.30;99.90;;;;;;5042268;28;20041;-78
2023/04/10 04:21:40;;;;;;;52.38;31.83;;;7.50;99.90;;;;;;5046392;28;20041;-77
2023/04/10 04:24:06;;;;;;;53.25;30.52;;;6.30;99.90;;;;;;5044247;28;20045;-76
2023/04/10 04:26:32;;;;;;;52.20;31.38;;;6.30;99.90;;;;;;5045460;28;20045;-77
2023/04/10 04:28:59;;;;;;;57.35;32.90;;;6.30;99.90;;;;;;5029379;28;20388;-77
2023/04/10 04:31:31;;;;;;;54.40;32.63;;;6.30;99.90;;;;;;5044156;28;20053;-76
2023/04/10 04:34:00;;;;;;;52.38;31.75;;;6.30;99.90;;;;;;5030765;28;20041;-76
2023/04/10 04:36:26;;;;;;;52.05;32.83;;;6.30;99.90;;;;;;5076767;28;20493;-76
2023/04/10 04:38:52;;;;;;;53.35;31.50;;;6.40;99.90;;;;;;5046023;28;20059;-76
2023/04/10 04:41:21;;;;;;;50.22;32.95;;;6.30;99.90;;;;;;5027232;28;20057;-76
2023/04/10 04:43:48;;;;;;;53.50;31.98;;;6.30;99.90;;;;;;5011874;28;20496;-78
2023/04/10 04:46:16;;;;;;;59.05;33.53;;;6.30;99.90;;;;;;5029370;28;20110;-78
2023/04/10 04:48:42;;;;;;;55.80;35.35;;;6.30;99.90;;;;;;5026766;28;20041;-78
2023/04/10 04:51:08;;;;;;;54.70;32.25;;;7.20;99.90;;;;;;5046135;28;20128;-78
2023/04/10 04:53:33;;;;;;;51.60;31.27;;;6.30;99.90;;;;;;5010498;28;20099;-78
2023/04/10 04:55:59;;;;;;;59.67;35.55;;;6.30;99.90;;;;;;5029185;28;20516;-77
2023/04/10 04:58:25;;;;;;;54.88;34.10;;;6.30;99.90;;;;;;5044008;28;20135;-78
2023/04/10 05:00:51;;;;;;;60.33;33.97;;;6.30;99.90;;;;;;5028107;28;20084;-78
2023/04/10 05:03:17;;;;;;;58.22;34.75;;;7.60;99.90;;;;;;5028315;28;20503;-78
2023/04/10 05:05:43;;;;;;;58.78;35.30;;;6.30;99.90;;;;;;5043411;28;20049;-78
2023/04/10 05:08:09;;;;;;;55.47;34.35;;;6.30;99.90;;;;;;5029364;28;20045;-77
2023/04/10 05:10:35;;;;;;;59.10;34.25;;;6.30;99.90;;;;;;5059943;28;20463;-76
2023/04/10 05:13:01;;;;;;;53.55;32.58;;;6.40;99.90;;;;;;5028944;28;20029;-76
2023/04/10 05:15:27;;;;;;;60.08;36.65;;;7.60;99.90;;;;;;5043573;28;20094;-76
2023/04/10 05:17:53;;;;;;;55.90;32.95;;;6.50;99.90;;;;;;5078007;28;20081;-76
2023/04/10 05:20:20;;;;;;;54.38;33.47;;;6.50;99.90;;;;;;5077748;28;20087;-76
2023/04/10 05:22:47;;;;;;;55.55;33.90;;;5.40;99.90;;;;;;5043785;28;20554;-76
2023/04/10 05:25:12;;;;;;;54.40;33.67;;;6.50;99.90;;;;;;5029347;28;20041;-77
2023/04/10 05:27:38;;;;;;;56.10;33.63;;;6.70;99.90;;;;;;5042474;28;20041;-77
2023/04/10 05:30:04;;;;;;;56.90;33.83;;;6.60;99.90;;;;;;5027825;28;20102;-77
2023/04/10 05:32:30;;;;;;;57.53;33.53;;;6.60;99.90;;;;;;5026275;28;20052;-76
2023/04/10 05:34:56;;;;;;;56.47;34.30;;;6.90;99.90;;;;;;5027848;28;20041;-76
2023/04/10 05:37:21;;;;;;;58.75;34.05;;;6.70;99.90;;;;;;5044731;28;20123;-76
2023/04/10 05:39:47;;;;;;;58.58;35.35;;;6.80;99.90;;;;;;5043569;28;20123;-77
2023/04/10 05:42:13;;;;;;;55.70;33.33;;;6.80;99.90;;;;;;5044875;28;20147;-76
2023/04/10 05:44:39;;;;;;;57.03;33.88;;;6.80;99.90;;;;;;5058817;28;20053;-76
2023/04/10 05:47:04;;;;;;;50.90;33.90;;;6.90;99.90;;;;;;5028392;28;20645;-76
2023/04/10 05:49:30;;;;;;;58.17;32.95;;;7.00;99.90;;;;;;5025646;28;20041;-76
2023/04/10 05:51:56;;;;;;;55.15;34.17;;;7.50;99.90;;;;;;5027363;28;20045;-76
2023/04/10 05:54:21;;;;;;;55.67;34.72;;;7.00;99.90;;;;;;5059721;28;20056;-76
2023/04/10 05:56:47;;;;;;;56.78;33.60;;;7.00;99.90;;;;;;5043629;28;20041;-76
2023/04/10 05:59:13;;;;;;;58.60;35.15;;;7.10;99.90;;;;;;5044315;28;20155;-76
2023/04/10 06:01:39;;;;;;;53.85;32.65;;;7.90;99.90;;;;;;5041702;28;20336;-76
2023/04/10 06:04:05;;;;;;;55.90;33.72;;;7.90;99.90;;;;;;5028235;28;20079;-77
2023/04/10 06:06:32;;;;;;;56.85;33.40;;;7.30;99.90;;;;;;5042064;28;20549;-77
2023/04/10 06:08:58;;;;;;;53.65;32.63;;;7.30;99.90;;;;;;5077553;28;20052;-77
2023/04/10 06:11:24;;;;;;;57.78;33.42;;;6.20;99.90;;;;;;5059475;28;20060;-77
2023/04/10 06:13:50;;;;;;;54.42;33.55;;;7.50;99.90;;;;;;5077108;28;20496;-77
2023/04/10 06:16:15;;;;;;;48.58;31.95;;;7.80;99.90;;;;;;5027217;28;20408;-77
2023/04/10 06:18:41;;;;;;;54.60;33.22;;;7.60;99.90;;;;;;5041629;28;20044;-77
2023/04/10 06:21:07;;;;;;;49.88;32.17;;;7.70;99.90;;;;;;5077847;28;20041;-77
2023/04/10 06:23:33;;;;;;;53.05;32.90;;;8.20;99.90;;;;;;5041103;28;20048;-76
2023/04/10 06:26:00;;;;;;;55.83;33.50;;;8.00;99.90;;;;;;5060539;28;20049;-76
2023/04/10 06:28:26;;;;;;;49.85;33.03;;;8.30;99.90;;;;;;5025583;28;20071;-77
2023/04/10 06:30:51;;;;;;;56.47;33.63;;;9.20;99.90;;;;;;5043001;28;20131;-77
2023/04/10 06:33:17;;;;;;;50.55;33.20;;;8.20;99.90;;;;;;5043122;28;20077;-77
2023/04/10 06:35:43;;;;;;;52.83;31.55;;;8.30;99.90;;;;;;5024731;28;20107;-77
2023/04/10 06:38:08;;;;;;;51.67;32.85;;;9.30;99.90;;;;;;5044045;28;20044;-77
2023/04/10 06:40:34;;;;;;;50.53;32.20;;;8.50;99.90;;;;;;5007611;28;20045;-77
2023/04/10 06:43:00;;;;;;;50.65;31.75;;;8.50;99.90;;;;;;5043930;28;20049;-77
2023/04/10 06:45:26;;;;;;;55.53;32.58;;;8.60;99.90;;;;;;5041514;28;20057;-77
2023/04/10 06:47:52;;;;;;;51.20;31.50;;;8.60;99.90;;;;;;5042549;28;20453;-77
2023/04/10 06:50:18;;;;;;;51.28;30.27;;;8.70;99.90;;;;;;5042884;28;20059;-77
2023/04/10 06:52:45;;;;;;;46.55;29.65;;;8.70;99.90;;;;;;5024683;28;20041;-77
2023/04/10 06:55:11;;;;;;;47.13;30.50;;;8.80;99.90;;;;;;5060428;28;20048;-77
2023/04/10 06:57:38;;;;;;;47.40;30.45;;;8.90;99.90;;;;;;5057283;28;20049;-77
2023/04/10 07:00:04;;;;;;;45.53;29.13;;;9.50;99.90;;;;;;5026987;28;20049;-77
2023/04/10 07:02:30;;;;;;;47.20;29.23;;;9.20;99.90;;;;;;5041098;28;20148;-77
2023/04/10 07:04:56;;;;;;;46.38;29.50;;;9.40;99.90;;;;;;5042954;28;20044;-77
2023/04/10 07:07:22;;;;;;;51.00;30.50;;;9.50;99.90;;;;;;5042298;28;20492;-77
2023/04/10 07:09:48;;;;;;;47.50;30.15;;;9.50;99.90;;;;;;5041272;28;20064;-77
2023/04/10 07:12:13;;;;;;;48.83;31.15;;;9.80;99.90;;;;;;5045000;28;20044;-77
2023/04/10 07:14:40;;;;;;;57.10;30.58;;;9.80;99.90;;;;;;5057104;28;20043;-77
2023/04/10 07:17:05;;;;;;;52.38;31.02;;;10.00;99.90;;;;;;5043432;28;20139;-77
2023/04/10 07:19:31;;;;;;;49.40;30.50;;;9.60;99.90;;;;;;5024134;28;20385;-77
2023/04/10 07:21:57;;;;;;;49.42;29.45;;;9.60;99.90;;;;;;5025952;28;20044;-76
2023/04/10 07:24:23;;;;;;;49.85;29.95;;;9.60;99.90;;;;;;5042274;28;20041;-77
2023/04/10 07:26:49;;;;;;;50.22;31.02;;;9.90;99.90;;;;;;5041563;28;20373;-77
2023/04/10 07:29:14;;;;;;;50.17;30.20;;;9.80;99.90;;;;;;5042991;28;20055;-77
2023/04/10 07:31:41;;;;;;;48.67;30.27;;;9.90;99.90;;;;;;5040756;28;20041;-77
2023/04/10 07:34:06;;;;;;;50.05;30.15;;;10.00;99.90;;;;;;5076815;28;20045;-77
2023/04/10 07:36:32;;;;;;;49.53;29.90;;;10.90;99.90;;;;;;5040569;28;20037;-78
2023/04/10 07:38:58;;;;;;;53.53;29.60;;;10.20;99.90;;;;;;5043013;28;20067;-78
2023/04/10 07:41:24;;;;;;;44.05;29.00;;;10.20;99.90;;;;;;5008728;28;20403;-77
2023/04/10 07:43:50;;;;;;;46.55;29.75;;;10.30;99.90;;;;;;5041895;28;20532;-77
2023/04/10 07:46:16;;;;;;;45.10;30.05;;;10.40;99.90;;;;;;5076292;28;20037;-78
2023/04/10 07:48:43;;;;;;;49.10;32.13;;;10.50;99.90;;;;;;5057266;28;20136;-77
2023/04/10 07:51:09;;;;;;;49.55;32.20;;;10.60;99.90;;;;;;5043437;28;20094;-78
2023/04/10 07:53:35;;;;;;;55.60;31.88;;;10.70;99.90;;;;;;5041347;28;20091;-78
2023/04/10 07:56:01;;;;;;;50.25;30.80;;;11.00;99.90;;;;;;5030485;28;20041;-78
2023/04/10 07:58:27;;;;;;;46.63;30.90;;;11.00;99.90;;;;;;5044711;28;20052;-78
2023/04/10 08:00:53;;;;;;;49.30;29.73;;;11.20;99.90;;;;;;5029679;28;20041;-78
2023/04/10 08:03:22;;;;;;;42.13;28.02;;;11.40;99.90;;;;;;5046505;28;20120;-78
2023/04/10 08:05:48;;;;;;;44.25;28.40;;;11.60;99.90;;;;;;5060901;28;20131;-78
2023/04/10 08:08:15;;;;;;;42.70;28.15;;;11.80;99.90;;;;;;5030534;28;20045;-78
2023/04/10 08:10:41;;;;;;;46.40;28.42;;;11.90;99.90;;;;;;5044381;28;20044;-78
2023/04/10 08:13:10;;;;;;;41.95;28.63;;;12.00;99.90;;;;;;5046843;28;20041;-78
2023/04/10 08:15:36;;;;;;;42.08;27.98;;;12.10;99.90;;;;;;5044952;28;20072;-78
2023/04/10 08:18:01;;;;;;;37.97;22.48;;;12.20;99.90;;;;;;5028826;28;20098;-78
2023/04/10 08:20:27;;;;;;;34.75;21.17;;;12.30;99.90;;;;;;5079712;28;20045;-78
2023/04/10 08:22:53;;;;;;;34.45;20.85;;;12.40;99.90;;;;;;5077639;28;20052;-78
2023/04/10 08:25:19;;;;;;;45.97;21.05;;;12.40;99.90;;;;;;5047247;28;20234;-78
2023/04/10 08:27:45;;;;;;;29.73;19.48;;;12.50;99.90;;;;;;5027120;28;20053;-78
2023/04/10 08:30:10;;;;;;;32.83;20.73;;;12.50;99.90;;;;;;5046600;28;20033;-78
2023/04/10 08:32:38;;;;;;;29.08;19.58;;;12.50;99.90;;;;;;5011628;28;20052;-78
2023/04/10 08:35:04;;;;;;;29.42;19.48;;;12.60;99.90;;;;;;5045732;28;20049;-78
2023/04/10 08:37:30;;;;;;;30.20;19.35;;;12.70;99.90;;;;;;5028733;28;20127;-78
2023/04/10 08:39:55;;;;;;;27.52;19.02;;;12.80;99.90;;;;;;5043028;28;20458;-78
2023/04/10 08:42:21;;;;;;;28.08;18.85;;;12.90;99.90;;;;;;5045959;28;20049;-78
2023/04/10 08:44:49;;;;;;;31.23;19.67;;;13.00;99.90;;;;;;5026679;28;20041;-78
2023/04/10 08:47:19;;;;;;;29.05;19.35;;;13.10;99.90;;;;;;5079103;28;20045;-77
2023/04/10 08:49:53;;;;;;;27.20;18.52;;;13.30;99.90;;;;;;5044262;28;20048;-78
2023/04/10 08:52:26;;;;;;;31.70;20.17;;;13.50;99.90;;;;;;5077983;28;20056;-78
2023/04/10 08:54:57;;;;;;;30.98;18.65;;;13.60;99.90;;;;;;5012704;28;20041;-78
2023/04/10 08:57:25;;;;;;;28.55;19.15;;;13.70;99.90;;;;;;5059866;28;20064;-78
2023/04/10 08:59:51;;;;;;;28.77;19.20;;;13.60;99.90;;;;;;5045971;28;20480;-78
2023/04/10 09:02:17;;;;;;;30.27;18.52;;;13.60;99.90;;;;;;5043378;28;20056;-78
2023/04/10 09:04:49;;;;;;;27.25;19.15;;;13.60;99.90;;;;;;5078603;28;20045;-78
2023/04/10 09:07:15;;;;;;;27.83;19.13;;;13.70;99.90;;;;;;5028249;28;20057;-77
2023/04/10 09:09:41;;;;;;;25.33;18.48;;;13.80;99.90;;;;;;5044390;28;20045;-78
2023/04/10 09:12:07;;;;;;;29.52;19.10;;;13.90;99.90;;;;;;5029745;28;20060;-78
2023/04/10 09:14:34;;;;;;;29.80;18.27;;;14.00;99.90;;;;;;5076284;28;20412;-78
2023/04/10 09:17:18;;;;;;;31.25;19.40;;;14.10;99.90;;;;;;5078933;28;20056;-78
2023/04/10 09:19:47;;;;;;;24.50;17.70;;;14.10;99.90;;;;;;5043370;28;20045;-78
2023/04/10 09:22:13;;;;;;;25.05;16.92;;;14.20;99.90;;;;;;5060866;28;20095;-78
2023/04/10 09:24:41;;;;;;;25.55;16.73;;;14.30;99.90;;;;;;5044537;28;20088;-78
2023/04/10 09:27:07;;;;;;;21.60;15.23;;;14.40;99.30;;;;;;5043270;28;20405;-78
2023/04/10 09:29:44;;;;;;;24.58;16.35;;;14.90;99.20;;;;;;5061967;28;20090;-77
2023/04/10 09:32:11;;;;;;;23.75;14.27;;;14.60;97.90;;;;;;5026090;28;20056;-78
2023/04/10 09:34:57;;;;;;;25.25;15.50;;;14.50;98.30;;;;;;5044928;28;20132;-77
2023/04/10 09:37:30;;;;;;;20.88;14.48;;;14.50;97.00;;;;;;5044548;28;20443;-78
2023/04/10 09:39:56;;;;;;;21.60;13.93;;;14.50;97.50;;;;;;5043433;28;20045;-78
2023/04/10 09:42:36;;;;;;;21.50;14.05;;;14.50;97.80;;;;;;5045289;28;20492;-78
2023/04/10 09:45:02;;;;;;;20.15;13.40;;;14.50;97.20;;;;;;5042454;28;20053;-78
2023/04/10 09:47:29;;;;;;;20.83;14.07;;;14.60;97.60;;;;;;5044805;28;20052;-78
2023/04/10 09:49:57;;;;;;;20.88;14.55;;;14.80;97.40;;;;;;5043268;28;20123;-77
2023/04/10 09:52:25;;;;;;;21.92;13.98;;;14.90;97.30;;;;;;5027242;28;20454;-77
2023/04/10 09:55:04;;;;;;;20.15;13.18;;;15.20;97.20;;;;;;5044631;28;20098;-78
2023/04/10 09:57:32;;;;;;;17.52;12.88;;;15.30;96.60;;;;;;5042698;28;20203;-77
2023/04/10 10:00:05;;;;;;;18.92;13.20;;;15.40;96.10;;;;;;5078067;28;20050;-78
2023/04/10 10:02:38;;;;;;;21.20;13.55;;;15.40;96.10;;;;;;5042800;28;20052;-77
2023/04/10 10:05:05;;;;;;;;;;;15.60;95.20;;;;;;5077983;28;20378;-78
2023/04/10 10:07:31;;;;;;;20.42;13.77;;;15.70;94.10;;;;;;5027280;28;19924;-78
2023/04/10 10:09:57;;;;;;;22.10;12.93;;;15.80;95.90;;;;;;5042295;28;20033;-78
2023/04/10 10:12:30;;;;;;;17.85;12.32;;;15.90;95.60;;;;;;5044522;28;20041;-77
2023/04/10 10:15:08;;;;;;;21.40;13.00;;;16.00;95.10;;;;;;5025948;28;20048;-78
2023/04/10 10:17:40;;;;;;;22.73;13.30;;;16.00;94.60;;;;;;5043029;28;20049;-77
2023/04/10 10:20:10;;;;;;;16.30;11.82;;;16.10;94.30;;;;;;5043378;28;20045;-78
2023/04/10 10:22:37;;;;;;;17.58;12.20;;;16.10;93.40;;;;;;5042793;28;20102;-77
2023/04/10 10:25:03;;;;;;;18.70;12.02;;;16.20;93.30;;;;;;5044056;28;20049;-78
2023/04/10 10:27:33;;;;;;;15.70;11.40;;;16.20;93.10;;;;;;5058666;28;20094;-78
2023/04/10 10:29:59;;;;;;;18.08;11.43;;;16.20;92.40;;;;;;5077230;28;20041;-78
2023/04/10 10:32:26;;;;;;;17.85;11.82;;;16.10;91.90;;;;;;5043277;28;20458;-77
2023/04/10 10:34:53;;;;;;;21.60;12.38;;;16.00;91.80;;;;;;5044575;28;20088;-78
2023/04/10 10:37:20;;;;;;;13.77;10.23;;;16.00;91.80;;;;;;5044513;28;20484;-78
2023/04/10 10:39:46;;;;;;;15.73;11.27;;;15.90;91.80;;;;;;5075688;28;20397;-78
2023/04/10 10:42:41;;;;;;;16.77;11.73;;;16.00;91.80;;;;;;5044593;28;20112;-78
2023/04/10 10:45:15;;;;;;;15.82;10.35;;;16.00;90.30;;;;;;5043077;28;20420;-77
2023/04/10 10:47:48;;;;;;;14.75;9.95;;;15.90;90.40;;;;;;5043987;28;20087;-78
2023/04/10 10:50:13;;;;;;;;;;;15.90;91.20;;;;;;5044889;28;20041;-78
2023/04/10 10:52:42;;;;;;;17.80;8.43;;;15.80;88.30;;;;;;5043052;28;20656;-78
2023/04/10 10:55:27;;;;;;;9.95;7.45;;;14.90;91.20;;;;;;5043652;28;20045;-78
2023/04/10 10:57:58;;;;;;;10.77;8.00;;;15.70;89.20;;;;;;5041206;28;20049;-77
2023/04/10 11:00:44;;;;;;;11.20;7.93;;;15.60;90.40;;;;;;5044025;28;20106;-77
2023/04/10 11:03:13;;;;;;;12.65;7.82;;;15.50;90.40;;;;;;5043283;28;20053;-77
2023/04/10 11:05:56;;;;;;;10.02;7.22;;;15.60;90.10;;;;;;5042863;28;20044;-78
2023/04/10 11:08:38;;;;;;;10.98;7.50;;;15.60;88.80;;;;;;5043353;28;20084;-77
2023/04/10 11:11:08;;;;;;;12.38;7.15;;;15.70;88.50;;;;;;5041548;28;20084;-77
2023/04/10 11:13:35;;;;;;;10.10;7.00;;;15.70;90.20;;;;;;5042593;28;20041;-77
2023/04/10 11:16:04;;;;;;;10.80;7.07;;;15.80;89.40;;;;;;5042735;28;20344;-78
2023/04/10 11:18:45;;;;;;;11.38;6.88;;;15.80;89.40;;;;;;5040804;28;20048;-78
2023/04/10 11:21:18;;;;;;;9.57;7.03;;;15.80;87.10;;;;;;5026936;28;20408;-77
2023/04/10 11:24:04;;;;;;;10.48;8.35;;;15.80;89.00;;;;;;5041416;28;20049;-77
2023/04/10 11:29:11;;;;;;;11.00;6.40;;;15.80;89.30;;;;;;5044415;28;20060;-77
2023/04/10 11:31:37;;;;;;;9.18;6.93;;;15.90;88.60;;;;;;5045500;28;20048;-78
2023/04/10 11:34:09;;;;;;;8.05;6.15;;;16.00;89.10;;;;;;5047564;28;20365;-77
2023/04/10 11:36:38;;;;;;;10.45;6.20;;;16.00;86.20;;;;;;5044972;28;20511;-78
2023/04/10 11:39:18;;;;;;;8.73;5.50;;;16.00;88.00;;;;;;5046430;28;20384;-77
2023/04/10 11:41:45;;;;;;;8.65;5.65;;;16.00;88.40;;;;;;5029710;28;20056;-77
2023/04/10 11:44:16;;;;;;;6.80;5.32;;;16.00;88.90;;;;;;5044998;28;20135;-78
2023/04/10 11:46:46;;;;;;;7.45;5.30;;;16.10;88.20;;;;;;5030754;28;20442;-77
2023/04/10 11:49:17;;;;;;;6.32;4.97;;;16.10;87.90;;;;;;5045254;28;20060;-78
2023/04/10 11:51:45;;;;;;;10.02;4.60;;;16.10;87.60;;;;;;5029564;28;20049;-77
2023/04/10 11:54:14;;;;;;;7.22;4.85;;;16.00;86.90;;;;;;5045458;28;20057;-77
2023/04/10 11:56:43;;;;;;;6.63;4.75;;;16.00;87.40;;;;;;5045023;28;20055;-77
2023/04/10 11:59:09;;;;;;;7.65;4.43;;;16.10;86.10;;;;;;5046653;28;20049;-78
2023/04/10 12:01:36;;;;;;;5.45;4.60;;;16.10;86.50;;;;;;5011552;28;20056;-78
2023/04/10 12:04:02;;;;;;;7.38;4.85;;;16.10;86.30;;;;;;5046758;28;20041;-78
2023/04/10 12:06:28;;;;;;;7.80;4.85;;;16.10;85.90;;;;;;5047067;28;20129;-78
2023/04/10 12:08:54;;;;;;;5.60;3.95;;;16.20;85.50;;;;;;5046706;28;20053;-77
2023/04/10 12:11:28;;;;;;;5.45;4.10;;;16.40;86.20;;;;;;5048448;28;20052;-78
2023/04/10 12:13:55;;;;;;;4.30;3.83;;;16.50;83.70;;;;;;5045362;28;20087;-77
2023/04/10 12:16:22;;;;;;;6.03;4.00;;;16.50;85.00;;;;;;5030322;28;20566;-77
2023/04/10 12:18:49;;;;;;;6.32;3.90;;;16.60;84.70;;;;;;5043902;28;20053;-78
2023/04/10 12:21:15;;;;;;;5.15;3.88;;;17.10;83.50;;;;;;5046219;28;20132;-77
2023/04/10 12:23:41;;;;;;;5.10;3.60;;;16.70;84.00;;;;;;5044363;28;20091;-78
2023/04/10 12:26:17;;;;;;;5.10;3.35;;;16.80;83.70;;;;;;5029029;28;20052;-78
2023/04/10 12:28:54;;;;;;;4.63;3.30;;;17.00;83.20;;;;;;5045789;28;20051;-78
2023/04/10 12:31:46;;;;;;;4.43;3.38;;;17.20;82.70;;;;;;5027328;28;20049;-77
2023/04/10 12:34:17;;;;;;;5.43;3.33;;;17.60;81.40;;;;;;5061797;28;20072;-78
2023/04/10 12:36:51;;;;;;;6.00;3.13;;;17.80;78.90;;;;;;5044299;28;20067;-78
2023/04/10 12:39:24;;;;;;;11.82;3.80;;;17.70;77.00;;;;;;5044593;28;20103;-78
2023/04/10 12:41:52;;;;;;;5.05;3.03;;;17.70;76.00;;;;;;5045922;28;20059;-78
2023/04/10 12:44:19;;;;;;;4.45;3.08;;;17.60;76.30;;;;;;5027196;28;20041;-78